Aeroporto :
LOGIN :

Iscrizione | Disclaimer

   EN    FR    IT 

 










Sommario :    VFR   VFR Marginale   IFR   IFR Intensivo   IFR Molto Intensivo
Visibilità : 
Base nubi : 
>= 8 km
>= 3000ft
5 / 8 km
1000 / 3000 ft
1500m / 5 km
500 / 1000 ft
800 / 1500m
200 / 500 ft
< 800m
< 200 ft
Simboli :   Temporali  Nebbia  Neve Forte  Precipitazioni Forti  Vento > 20 kt
SIGMETs :   Varie  Temporali  Ghiacco  Turbolenza  Onda orograficha  Ceneri Vulcaniche






- Altitudine del aeroporto : 18 ft
- Codice IATA : KVA


LGKV - Megas Alexandros

ULTIMO METAR :
  • 161050Z 08011KT CAVOK 37/16 Q1009

METARs OBSOLETI :
  • 161020Z 08013KT CAVOK 36/16 Q1009
  • 160950Z 07013KT CAVOK 36/16 Q1009
  • 160920Z 08010KT CAVOK 36/16 Q1009
  • 160850Z 08010KT CAVOK 35/16 Q1010
  • 160820Z 08006KT CAVOK 34/16 Q1010
  • 160750Z 08006KT CAVOK 34/16 Q1010
  • 160720Z 06004KT CAVOK 32/17 Q1010
  • 160650Z 09004KT CAVOK 31/17 Q1011
  • 160620Z 10004KT CAVOK 29/17 Q1011

TAF TAF LGKV
Valido dal 16 a 06 ore il 17 a 06 ore UTC


160500Z 1606/1706 VRB03KT 9999 FEW030
TEMPO 1610/1618 05014KT



MetMap, La meteo Aeronautica in un colpo d'occhio ! - Copyright ORBIFLY Dicembre 2007 - Disclaimer

ORBIFLY MET'MAP TEAM :

Programmazione e sviluppo : Alexandra Zaïnal
Concezione : Baudouin d'Aumeries
Supporto tecnico e logistico : Manuel Goepfert
Aiuto : Marc-Olivier Méhu
Aiuto per la traduzione : Arnaldo La Scala




FONTI E CREDITI :

   NOAA